Terminal Aerodrome Forecast
Issued by NWS Pocatello, ID

Home | Current Version | Previous Version | Text Only | Print | Product List | Glossary On
Versions: 1 2 3 4 5 6 7 8 9 10 11 12 13 14 15 16 17 18 19 20 21 22 23 24 25 26 27
000
FTUS45 KPIH 270644 AAA
TAFIDA
TAF AMD
KIDA 270644Z 2707/2806 21015KT P6SM VCSH SCT015 BKN040
      TEMPO 2707/2709 BKN015 OVC040
     FM270900 26015KT P6SM -SHRA SCT008 BKN015 OVC060
     FM271400 32015KT P6SM VCSH SCT015 BKN070
     FM271900 23015G25KT P6SM -SHRA SCT025 OVC050=

USA.gov is the U.S. government's official web portal to all federal, state and local government web resources and services.